Time;durP1;ratioP1;P1;durP2;ratioP2;P2;SDS_P1;SDS_P2;PMS_P1;PMS_P2;Temp;Humidity;BMP_temperature;BMP_pressure;BME280_temperature;BME280_humidity;BME280_pressure;Samples;Min_cycle;Max_cycle;Signal;HPM_P1;HPM_P2
2022/12/10 00:00:55;;;;;;;53.92;20.83;;;;;;;;;;4975236;28;20037;-75
2022/12/10 00:03:21;;;;;;;55.50;21.63;;;;;;;;;;4975309;28;20033;-75
2022/12/10 00:05:47;;;;;;;59.42;21.00;;;;;;;;;;4975285;28;20508;-75
2022/12/10 00:08:13;;;;;;;54.38;20.65;;;;;;;;;;4975172;28;20027;-75
2022/12/10 00:10:39;;;;;;;58.35;20.63;;;;;;;;;;4975222;28;20038;-76
2022/12/10 00:13:05;;;;;;;58.20;21.80;;;;;;;;;;4975196;28;20041;-75
2022/12/10 00:15:34;;;;;;;54.90;21.95;;;;;;;;;;4975216;28;20355;-75
2022/12/10 00:18:00;;;;;;;53.67;22.00;;;;;;;;;;4975101;28;20034;-75
2022/12/10 00:20:26;;;;;;;59.28;21.52;;;;;;;;;;4974705;28;20050;-75
2022/12/10 00:22:52;;;;;;;57.83;21.80;;;;;;;;;;4974980;28;20098;-75
2022/12/10 00:25:18;;;;;;;53.95;20.05;;;;;;;;;;4975084;28;20722;-75
2022/12/10 00:27:44;;;;;;;53.97;20.85;;;;;;;;;;4974954;28;20034;-76
2022/12/10 00:30:10;;;;;;;52.17;20.05;;;;;;;;;;4974949;28;20062;-75
2022/12/10 00:32:36;;;;;;;50.08;19.73;;;;;;;;;;4974754;28;20077;-75
2022/12/10 00:35:03;;;;;;;53.83;20.35;;;;;;;;;;4974798;28;20107;-75
2022/12/10 00:37:29;;;;;;;53.03;21.45;;;;;;;;;;4974724;28;20533;-75
2022/12/10 00:39:54;;;;;;;55.30;20.50;;;;;;;;;;4974919;28;20146;-76
2022/12/10 00:42:20;;;;;;;52.53;21.40;;;;;;;;;;4974786;28;20034;-75
2022/12/10 00:44:46;;;;;;;52.80;21.00;;;;;;;;;;4974788;28;20073;-75
2022/12/10 00:47:12;;;;;;;51.78;20.42;;;;;;;;;;4974857;28;20465;-76
2022/12/10 00:49:38;;;;;;;49.28;20.65;;;;;;;;;;4974679;28;20034;-75
2022/12/10 00:52:04;;;;;;;50.90;21.25;;;;;;;;;;4974724;28;20513;-76
2022/12/10 00:54:30;;;;;;;55.83;19.95;;;;;;;;;;4974431;28;20079;-75
2022/12/10 00:56:56;;;;;;;56.08;22.00;;;;;;;;;;4974798;28;20058;-75
2022/12/10 00:59:22;;;;;;;59.03;21.35;;;;;;;;;;4974592;28;20480;-75
2022/12/10 01:01:48;;;;;;;47.45;20.67;;;;;;;;;;4974603;28;20118;-75
2022/12/10 01:04:16;;;;;;;52.97;21.15;;;;;;;;;;4974574;28;20031;-76
2022/12/10 01:06:46;;;;;;;56.83;21.23;;;;;;;;;;4957275;28;20027;-75
2022/12/10 01:09:13;;;;;;;54.85;21.27;;;;;;;;;;4974531;28;20023;-75
2022/12/10 01:11:40;;;;;;;52.03;20.10;;;;;;;;;;4974534;28;20425;-76
2022/12/10 01:14:07;;;;;;;52.08;20.90;;;;;;;;;;4974523;28;20054;-75
2022/12/10 01:16:33;;;;;;;49.13;20.70;;;;;;;;;;4974587;28;20085;-75
2022/12/10 01:18:59;;;;;;;50.70;20.02;;;;;;;;;;4974539;28;20022;-76
2022/12/10 01:21:27;;;;;;;56.60;21.38;;;;;;;;;;4974587;28;20078;-75
2022/12/10 01:23:53;;;;;;;53.50;20.85;;;;;;;;;;4974487;28;20027;-75
2022/12/10 01:26:20;;;;;;;55.58;20.85;;;;;;;;;;4974465;28;20031;-76
2022/12/10 01:28:47;;;;;;;56.22;20.00;;;;;;;;;;4974395;28;20105;-75
2022/12/10 01:31:16;;;;;;;57.22;20.48;;;;;;;;;;4974359;28;20394;-75
2022/12/10 01:33:42;;;;;;;53.42;20.48;;;;;;;;;;4977883;28;20031;-75
2022/12/10 01:36:12;;;;;;;55.60;21.15;;;;;;;;;;4978003;28;20054;-75
2022/12/10 01:38:38;;;;;;;;;;;;;;;;;;4978315;28;20027;-75
2022/12/10 01:41:05;;;;;;;50.92;19.48;;;;;;;;;;4977971;28;19906;-75
2022/12/10 01:43:52;;;;;;;53.25;20.33;;;;;;;;;;4978193;28;20349;-75
2022/12/10 01:46:18;;;;;;;53.97;21.80;;;;;;;;;;4966686;28;20034;-75
2022/12/10 01:48:44;;;;;;;54.58;21.48;;;;;;;;;;4977645;28;20073;-75
2022/12/10 01:51:10;;;;;;;58.22;22.27;;;;;;;;;;4977738;28;20034;-75
2022/12/10 01:53:36;;;;;;;58.72;22.58;;;;;;;;;;4977812;28;20054;-75
2022/12/10 01:56:02;;;;;;;55.53;22.40;;;;;;;;;;4977432;28;20090;-75
2022/12/10 01:58:28;;;;;;;56.45;20.73;;;;;;;;;;4977557;28;20027;-75
2022/12/10 02:01:13;;;;;;;56.10;21.65;;;;;;;;;;4977462;28;20027;-75
2022/12/10 02:03:43;;;;;;;58.72;21.85;;;;;;;;;;4977641;28;20030;-75
2022/12/10 02:06:32;;;;;;;52.70;21.02;;;;;;;;;;4977784;28;20097;-75
2022/12/10 02:09:16;;;;;;;51.58;21.08;;;;;;;;;;4977531;28;20030;-75
2022/12/10 02:11:46;;;;;;;55.03;19.50;;;;;;;;;;4977366;28;20114;-75
2022/12/10 02:14:15;;;;;;;53.45;21.95;;;;;;;;;;4977251;28;20057;-75
2022/12/10 02:16:44;;;;;;;52.33;20.15;;;;;;;;;;4977227;28;20482;-75
2022/12/10 02:19:16;;;;;;;62.47;21.67;;;;;;;;;;4977169;28;20418;-75
2022/12/10 02:21:44;;;;;;;60.17;22.13;;;;;;;;;;4977282;28;20026;-75
2022/12/10 02:24:12;;;;;;;54.67;19.48;;;;;;;;;;4977267;28;20480;-75
2022/12/10 02:26:50;;;;;;;55.67;21.95;;;;;;;;;;4977092;28;20097;-75
2022/12/10 02:29:24;;;;;;;53.35;21.40;;;;;;;;;;4977232;28;20362;-75
2022/12/10 02:32:11;;;;;;;58.03;21.30;;;;;;;;;;4976956;28;20038;-75
2022/12/10 02:34:41;;;;;;;50.90;20.38;;;;;;;;;;4959392;28;20113;-75
2022/12/10 02:37:09;;;;;;;57.88;20.98;;;;;;;;;;4976948;28;20078;-75
2022/12/10 02:39:38;;;;;;;52.20;19.90;;;;;;;;;;4976824;28;20023;-75
2022/12/10 02:42:05;;;;;;;63.50;23.20;;;;;;;;;;4976687;28;20058;-75
2022/12/10 02:44:32;;;;;;;61.67;20.48;;;;;;;;;;4976613;28;20426;-75
2022/12/10 02:46:59;;;;;;;70.53;21.63;;;;;;;;;;4976467;28;20026;-75
2022/12/10 02:49:27;;;;;;;88.82;20.15;;;;;;;;;;4976108;28;20026;-75
2022/12/10 02:51:53;;;;;;;71.95;22.05;;;;;;;;;;4976296;28;20035;-75
2022/12/10 02:54:38;;;;;;;81.65;21.00;;;;;;;;;;4976571;28;20064;-75
2022/12/10 02:57:13;;;;;;;104.00;22.30;;;;;;;;;;4976460;28;20027;-75
2022/12/10 02:59:47;;;;;;;120.82;21.40;;;;;;;;;;4976543;28;20022;-75
2022/12/10 03:02:30;;;;;;;88.35;18.35;;;;;;;;;;4976367;28;20093;-75
2022/12/10 03:05:04;;;;;;;89.15;19.42;;;;;;;;;;4976668;28;20374;-75
2022/12/10 03:07:40;;;;;;;81.53;19.10;;;;;;;;;;4959030;28;20041;-75
2022/12/10 03:10:21;;;;;;;84.10;19.40;;;;;;;;;;4976205;28;20031;-75
2022/12/10 03:12:49;;;;;;;81.35;20.05;;;;;;;;;;4976410;28;20042;-75
2022/12/10 03:15:16;;;;;;;88.78;22.17;;;;;;;;;;4976142;28;20018;-75
2022/12/10 03:17:43;;;;;;;88.22;22.30;;;;;;;;;;4976070;28;20030;-75
2022/12/10 03:20:11;;;;;;;77.10;20.42;;;;;;;;;;4976028;28;20026;-75
2022/12/10 03:22:39;;;;;;;75.45;20.55;;;;;;;;;;4976123;28;20479;-75
2022/12/10 03:25:05;;;;;;;82.25;22.65;;;;;;;;;;4976025;28;20480;-75
2022/12/10 03:27:32;;;;;;;82.10;21.05;;;;;;;;;;4975904;28;20113;-75
2022/12/10 03:29:59;;;;;;;98.07;23.02;;;;;;;;;;4976086;28;20034;-75
2022/12/10 03:32:27;;;;;;;85.72;22.17;;;;;;;;;;4958506;28;20035;-75
2022/12/10 03:34:54;;;;;;;80.10;20.58;;;;;;;;;;4975779;28;20397;-75
2022/12/10 03:37:21;;;;;;;99.05;24.77;;;;;;;;;;4975728;28;20492;-75
2022/12/10 03:39:47;;;;;;;84.18;21.33;;;;;;;;;;4975826;28;20019;-75
2022/12/10 03:42:13;;;;;;;115.05;24.40;;;;;;;;;;4975680;28;20034;-75
2022/12/10 03:44:40;;;;;;;71.88;21.02;;;;;;;;;;4975678;28;20031;-75
2022/12/10 03:47:10;;;;;;;75.35;20.25;;;;;;;;;;4975896;28;20022;-75
2022/12/10 03:49:36;;;;;;;93.15;20.33;;;;;;;;;;4958322;28;20105;-75
2022/12/10 03:52:02;;;;;;;85.35;16.52;;;;;;;;;;4975303;28;20118;-75
2022/12/10 03:54:28;;;;;;;83.57;18.15;;;;;;;;;;4974612;28;20051;-75
2022/12/10 03:56:54;;;;;;;80.32;17.05;;;;;;;;;;4975524;28;20023;-75
2022/12/10 03:59:20;;;;;;;80.25;18.25;;;;;;;;;;4975449;28;20109;-75
2022/12/10 04:01:46;;;;;;;70.78;16.83;;;;;;;;;;4975409;28;20030;-75
2022/12/10 04:04:12;;;;;;;114.03;19.23;;;;;;;;;;4975156;28;20035;-75
2022/12/10 04:06:39;;;;;;;70.75;16.30;;;;;;;;;;4975152;28;20034;-75
2022/12/10 04:09:05;;;;;;;72.68;15.80;;;;;;;;;;4975321;28;20031;-75
2022/12/10 04:11:31;;;;;;;85.30;16.23;;;;;;;;;;4975134;28;20472;-75
2022/12/10 04:16:42;;;;;;;115.60;17.83;;;;;;;;;;4975581;28;20090;-75
2022/12/10 04:19:10;;;;;;;69.05;13.90;;;;;;;;;;4975143;28;20023;-75
2022/12/10 04:27:17;;;;;;;84.10;15.55;;;;;;;;;;4975225;28;20089;-75
2022/12/10 04:29:43;;;;;;;104.53;16.00;;;;;;;;;;4975161;28;20027;-75
2022/12/10 04:32:09;;;;;;;114.05;17.67;;;;;;;;;;4974812;28;20500;-75
2022/12/10 04:34:35;;;;;;;94.32;16.15;;;;;;;;;;4974828;28;20034;-75
2022/12/10 04:37:02;;;;;;;229.93;21.88;;;;;;;;;;4974911;28;20454;-75
2022/12/10 04:39:28;;;;;;;120.70;17.70;;;;;;;;;;4974899;28;20046;-75
2022/12/10 04:41:54;;;;;;;158.60;19.15;;;;;;;;;;4974709;28;20048;-75
2022/12/10 04:44:20;;;;;;;252.18;24.17;;;;;;;;;;4974682;28;20027;-75
2022/12/10 04:46:47;;;;;;;172.85;23.63;;;;;;;;;;4974784;28;20023;-75
2022/12/10 04:49:13;;;;;;;111.15;17.85;;;;;;;;;;4974779;28;20109;-76
2022/12/10 04:51:39;;;;;;;166.95;22.17;;;;;;;;;;4974808;28;20458;-75
2022/12/10 04:54:05;;;;;;;72.15;14.43;;;;;;;;;;4974950;28;20030;-75
2022/12/10 04:56:31;;;;;;;60.38;12.73;;;;;;;;;;4974650;28;20034;-75
2022/12/10 04:58:58;;;;;;;59.33;11.30;;;;;;;;;;4974773;28;20371;-75
2022/12/10 05:01:25;;;;;;;50.63;13.68;;;;;;;;;;4974977;28;20109;-75
2022/12/10 05:03:51;;;;;;;56.92;13.00;;;;;;;;;;4974704;28;20023;-75
2022/12/10 05:06:18;;;;;;;54.72;13.00;;;;;;;;;;4976272;28;20714;-76
2022/12/10 05:08:44;;;;;;;49.40;12.63;;;;;;;;;;4978549;28;20034;-75
2022/12/10 05:11:12;;;;;;;58.15;13.40;;;;;;;;;;4978404;28;20081;-75
2022/12/10 05:13:39;;;;;;;58.88;12.88;;;;;;;;;;4961031;28;20061;-76
2022/12/10 05:16:06;;;;;;;57.67;13.15;;;;;;;;;;4978411;28;20604;-75
2022/12/10 05:18:33;;;;;;;58.33;13.63;;;;;;;;;;4978247;28;20027;-75
2022/12/10 05:20:59;;;;;;;50.70;12.65;;;;;;;;;;4978357;28;20552;-75
2022/12/10 05:23:28;;;;;;;57.00;13.38;;;;;;;;;;4978279;28;20457;-75
2022/12/10 05:26:01;;;;;;;71.10;13.07;;;;;;;;;;4978245;28;20081;-75
2022/12/10 05:28:27;;;;;;;53.75;11.82;;;;;;;;;;4977985;28;20023;-75
2022/12/10 05:30:53;;;;;;;73.13;13.80;;;;;;;;;;4978363;28;20113;-75
2022/12/10 05:33:19;;;;;;;62.55;12.95;;;;;;;;;;4981622;28;20110;-76
2022/12/10 05:36:02;;;;;;;66.57;13.50;;;;;;;;;;4981682;28;20050;-75
2022/12/10 05:38:29;;;;;;;62.58;12.02;;;;;;;;;;4977707;28;20533;-75
2022/12/10 05:40:56;;;;;;;64.60;13.27;;;;;;;;;;4977904;28;20517;-76
2022/12/10 05:43:22;;;;;;;43.22;12.18;;;;;;;;;;4977826;28;20029;-75
2022/12/10 05:45:48;;;;;;;48.22;12.95;;;;;;;;;;4977923;28;20106;-76
2022/12/10 05:48:15;;;;;;;42.42;12.55;;;;;;;;;;4977778;28;20062;-75
2022/12/10 05:50:42;;;;;;;32.72;11.65;;;;;;;;;;4977785;28;20077;-75
2022/12/10 05:53:08;;;;;;;44.92;12.85;;;;;;;;;;4977803;28;20031;-76
2022/12/10 05:55:34;;;;;;;45.75;12.20;;;;;;;;;;4996766;28;20046;-75
2022/12/10 05:58:00;;;;;;;51.47;11.85;;;;;;;;;;4988173;28;20089;-75
2022/12/10 06:00:27;;;;;;;36.25;11.13;;;;;;;;;;4996964;28;20030;-75
2022/12/10 06:02:54;;;;;;;47.83;13.38;;;;;;;;;;4996949;28;20026;-75
2022/12/10 06:05:20;;;;;;;38.25;12.10;;;;;;;;;;4997093;28;20026;-75
2022/12/10 06:07:45;;;;;;;74.88;13.82;;;;;;;;;;4996846;28;20049;-76
2022/12/10 06:10:12;;;;;;;47.65;12.93;;;;;;;;;;4996771;28;20030;-75
2022/12/10 06:12:38;;;;;;;92.05;13.77;;;;;;;;;;4979237;28;20382;-76
2022/12/10 06:15:04;;;;;;;201.88;21.15;;;;;;;;;;4992147;28;20058;-76
2022/12/10 06:17:30;;;;;;;136.48;17.23;;;;;;;;;;4992308;28;20037;-76
2022/12/10 06:19:56;;;;;;;163.63;19.30;;;;;;;;;;4996606;28;20034;-75
2022/12/10 06:22:23;;;;;;;42.15;12.50;;;;;;;;;;4996537;28;20113;-75
2022/12/10 06:24:49;;;;;;;76.82;13.65;;;;;;;;;;4996684;28;20038;-76
2022/12/10 06:27:15;;;;;;;45.67;12.07;;;;;;;;;;4996528;28;20026;-76
2022/12/10 06:29:41;;;;;;;37.25;11.85;;;;;;;;;;4996482;28;20086;-76
2022/12/10 06:32:07;;;;;;;53.35;12.00;;;;;;;;;;4996200;28;20045;-75
2022/12/10 06:34:33;;;;;;;36.15;12.40;;;;;;;;;;4996257;28;20031;-76
2022/12/10 06:36:59;;;;;;;43.83;13.65;;;;;;;;;;4996119;28;20566;-75
2022/12/10 06:39:25;;;;;;;168.50;22.50;;;;;;;;;;4995978;28;20030;-75
2022/12/10 06:41:51;;;;;;;35.63;10.40;;;;;;;;;;4982250;28;20062;-75
2022/12/10 06:44:17;;;;;;;48.33;11.57;;;;;;;;;;4983649;28;20027;-75
2022/12/10 06:46:43;;;;;;;39.08;11.07;;;;;;;;;;4996093;28;20031;-75
2022/12/10 06:49:09;;;;;;;35.30;12.15;;;;;;;;;;4996029;28;20085;-75
2022/12/10 06:51:35;;;;;;;91.30;13.77;;;;;;;;;;4996223;28;20543;-75
2022/12/10 06:54:01;;;;;;;43.47;10.50;;;;;;;;;;4995807;28;20105;-75
2022/12/10 06:56:27;;;;;;;42.13;11.95;;;;;;;;;;4996149;28;20090;-75
2022/12/10 06:58:53;;;;;;;38.72;12.13;;;;;;;;;;4996016;28;20441;-75
2022/12/10 07:01:20;;;;;;;38.80;11.55;;;;;;;;;;4995861;28;20039;-75
2022/12/10 07:03:50;;;;;;;48.75;11.88;;;;;;;;;;4995971;28;20069;-75
2022/12/10 07:06:16;;;;;;;48.05;12.27;;;;;;;;;;4995515;28;20027;-75
2022/12/10 07:08:42;;;;;;;41.10;11.88;;;;;;;;;;4995356;28;20038;-75
2022/12/10 07:11:09;;;;;;;125.63;17.60;;;;;;;;;;4995350;28;20477;-75
2022/12/10 07:13:36;;;;;;;34.92;12.63;;;;;;;;;;4995391;28;20113;-75
2022/12/10 07:16:02;;;;;;;54.90;11.98;;;;;;;;;;4995551;28;20026;-75
2022/12/10 07:18:28;;;;;;;44.40;11.25;;;;;;;;;;4995578;28;20109;-75
2022/12/10 07:20:54;;;;;;;35.35;11.93;;;;;;;;;;4995370;28;20113;-74
2022/12/10 07:23:21;;;;;;;63.00;11.65;;;;;;;;;;4995544;28;20496;-75
2022/12/10 07:25:47;;;;;;;87.57;14.88;;;;;;;;;;4995259;28;20030;-75
2022/12/10 07:28:13;;;;;;;144.23;18.73;;;;;;;;;;4995433;28;20049;-75
2022/12/10 07:30:39;;;;;;;45.58;12.13;;;;;;;;;;4994095;28;20040;-75
2022/12/10 07:33:05;;;;;;;52.03;12.73;;;;;;;;;;4995489;28;20109;-75
2022/12/10 07:35:31;;;;;;;51.83;12.35;;;;;;;;;;4994921;28;20477;-75
2022/12/10 07:37:57;;;;;;;58.33;12.10;;;;;;;;;;4984054;28;20038;-75
2022/12/10 07:40:23;;;;;;;48.67;12.25;;;;;;;;;;4975849;28;20023;-75
2022/12/10 07:42:49;;;;;;;75.70;13.75;;;;;;;;;;4975904;28;20023;-75
2022/12/10 07:45:15;;;;;;;58.33;12.90;;;;;;;;;;4975582;28;20109;-75
2022/12/10 07:47:42;;;;;;;57.05;12.30;;;;;;;;;;4975736;28;20031;-75
2022/12/10 07:50:08;;;;;;;74.18;13.45;;;;;;;;;;4975461;28;20027;-74
2022/12/10 07:52:34;;;;;;;194.52;22.85;;;;;;;;;;4975297;28;20026;-75
2022/12/10 07:55:00;;;;;;;54.47;12.52;;;;;;;;;;4975166;28;20055;-75
2022/12/10 07:57:26;;;;;;;52.33;12.75;;;;;;;;;;4975422;28;20026;-75
2022/12/10 07:59:52;;;;;;;50.28;12.57;;;;;;;;;;4975512;28;20033;-75
2022/12/10 08:02:18;;;;;;;71.22;14.18;;;;;;;;;;4975306;28;20114;-75
2022/12/10 08:04:44;;;;;;;46.85;12.13;;;;;;;;;;4975340;28;20019;-75
2022/12/10 08:07:11;;;;;;;54.85;12.60;;;;;;;;;;4975237;28;20062;-75
2022/12/10 08:09:37;;;;;;;50.60;12.45;;;;;;;;;;4975342;28;20023;-75
2022/12/10 08:12:03;;;;;;;102.13;15.35;;;;;;;;;;4975022;28;20034;-75
2022/12/10 08:14:29;;;;;;;83.60;16.83;;;;;;;;;;4975074;28;20451;-74
2022/12/10 08:16:55;;;;;;;60.17;13.70;;;;;;;;;;4973859;28;20466;-75
2022/12/10 08:19:21;;;;;;;45.53;13.90;;;;;;;;;;4975248;28;20030;-75
2022/12/10 08:21:47;;;;;;;45.20;13.73;;;;;;;;;;4974961;28;20031;-75
2022/12/10 08:24:13;;;;;;;62.33;15.15;;;;;;;;;;4975127;28;20034;-75
2022/12/10 08:26:39;;;;;;;52.50;15.32;;;;;;;;;;4975006;28;20033;-75
2022/12/10 08:29:05;;;;;;;49.63;13.73;;;;;;;;;;4974986;28;20030;-75
2022/12/10 08:31:31;;;;;;;68.70;16.52;;;;;;;;;;4974858;28;20039;-75
2022/12/10 08:33:57;;;;;;;67.80;15.98;;;;;;;;;;4974931;28;20078;-75
2022/12/10 08:36:23;;;;;;;51.22;16.05;;;;;;;;;;4974799;28;20031;-75
2022/12/10 08:38:49;;;;;;;71.15;17.98;;;;;;;;;;4974909;28;20027;-75
2022/12/10 08:41:17;;;;;;;58.33;16.25;;;;;;;;;;4974503;28;20085;-75
2022/12/10 08:43:43;;;;;;;59.38;16.35;;;;;;;;;;4974975;28;20440;-75
2022/12/10 08:46:10;;;;;;;54.05;15.20;;;;;;;;;;4974604;28;20019;-74
2022/12/10 08:48:36;;;;;;;71.45;15.65;;;;;;;;;;4975032;28;20492;-75
2022/12/10 08:51:03;;;;;;;71.07;16.52;;;;;;;;;;4974692;28;20043;-75
2022/12/10 08:53:29;;;;;;;100.90;17.00;;;;;;;;;;4974730;28;20022;-75
2022/12/10 08:55:55;;;;;;;58.55;15.88;;;;;;;;;;4974569;28;20186;-75
2022/12/10 08:58:21;;;;;;;60.55;15.50;;;;;;;;;;4974525;28;20109;-75
2022/12/10 09:00:47;;;;;;;55.90;16.25;;;;;;;;;;4957311;28;20035;-75
2022/12/10 09:03:13;;;;;;;51.97;14.82;;;;;;;;;;4974555;28;20031;-75
2022/12/10 09:05:39;;;;;;;54.88;16.63;;;;;;;;;;4974436;28;20034;-75
2022/12/10 09:08:05;;;;;;;68.22;15.57;;;;;;;;;;4974644;28;20031;-75
2022/12/10 09:10:31;;;;;;;61.22;16.17;;;;;;;;;;4974513;28;20042;-75
2022/12/10 09:12:57;;;;;;;60.90;16.33;;;;;;;;;;4974553;28;20027;-75
2022/12/10 09:15:23;;;;;;;92.10;18.60;;;;;;;;;;4974439;28;20031;-75
2022/12/10 09:17:49;;;;;;;61.78;16.73;;;;;;;;;;4974483;28;20489;-75
2022/12/10 09:20:15;;;;;;;58.88;16.20;;;;;;;;;;4974476;28;20023;-75
2022/12/10 09:22:41;;;;;;;65.47;18.35;;;;;;;;;;4974557;28;20041;-75
2022/12/10 09:25:14;;;;;;;58.50;15.40;;;;;;;;;;4974530;28;20023;-75
2022/12/10 09:27:41;;;;;;;53.00;15.93;;;;;;;;;;4956876;28;20029;-75
2022/12/10 09:30:07;;;;;;;54.25;16.00;;;;;;;;;;4974481;28;20026;-74
2022/12/10 09:32:33;;;;;;;53.53;15.07;;;;;;;;;;4974311;28;20058;-74
2022/12/10 09:34:59;;;;;;;49.53;15.20;;;;;;;;;;4974176;28;20027;-75
2022/12/10 09:37:25;;;;;;;54.88;15.05;;;;;;;;;;4974207;28;20030;-75
2022/12/10 09:39:51;;;;;;;57.05;16.23;;;;;;;;;;4974177;28;20039;-75
2022/12/10 09:42:28;;;;;;;57.63;16.33;;;;;;;;;;4974094;28;20030;-75
2022/12/10 09:44:57;;;;;;;53.08;16.10;;;;;;;;;;4974311;28;20363;-75
2022/12/10 09:47:46;;;;;;;52.85;15.10;;;;;;;;;;4973857;28;20765;-75
2022/12/10 09:50:12;;;;;;;49.58;13.90;;;;;;;;;;4966649;28;20039;-74
2022/12/10 09:52:41;;;;;;;46.60;14.00;;;;;;;;;;4974393;28;20042;-75
2022/12/10 09:55:19;;;;;;;49.05;14.75;;;;;;;;;;4977440;28;20461;-75
2022/12/10 09:57:53;;;;;;;43.53;15.07;;;;;;;;;;4977580;28;20030;-75
2022/12/10 10:00:19;;;;;;;40.53;12.88;;;;;;;;;;4977585;28;20513;-75
2022/12/10 10:02:46;;;;;;;50.90;14.10;;;;;;;;;;4977784;28;20450;-75
2022/12/10 10:05:17;;;;;;;40.88;13.60;;;;;;;;;;4977564;28;20109;-75
2022/12/10 10:07:45;;;;;;;49.85;14.95;;;;;;;;;;4977239;28;20039;-75
2022/12/10 10:10:23;;;;;;;58.60;13.80;;;;;;;;;;4977099;28;20035;-75
2022/12/10 10:12:50;;;;;;;36.65;14.18;;;;;;;;;;4977625;28;20110;-75
2022/12/10 10:15:18;;;;;;;39.75;13.20;;;;;;;;;;4977352;28;20062;-75
2022/12/10 10:17:46;;;;;;;41.78;14.15;;;;;;;;;;4985077;28;20034;-75
2022/12/10 10:20:13;;;;;;;43.10;14.00;;;;;;;;;;4977606;28;20370;-75
2022/12/10 10:22:39;;;;;;;54.30;13.68;;;;;;;;;;4977063;28;20034;-75
2022/12/10 10:25:06;;;;;;;44.35;12.82;;;;;;;;;;4977122;28;20054;-75
2022/12/10 10:27:33;;;;;;;41.03;14.30;;;;;;;;;;4976941;28;20377;-75
2022/12/10 10:30:01;;;;;;;44.97;13.27;;;;;;;;;;4992238;28;20019;-75
2022/12/10 10:32:36;;;;;;;42.58;13.70;;;;;;;;;;5015975;28;20045;-75
2022/12/10 10:35:03;;;;;;;47.08;13.93;;;;;;;;;;5015866;28;20036;-75
2022/12/10 10:37:32;;;;;;;43.40;14.00;;;;;;;;;;5015881;28;20022;-76
2022/12/10 10:39:58;;;;;;;46.38;13.30;;;;;;;;;;5015985;28;20105;-76
2022/12/10 10:42:38;;;;;;;43.05;14.50;;;;;;;;;;5015931;28;20030;-76
2022/12/10 10:45:06;;;;;;;39.42;13.50;;;;;;;;;;5015753;28;20022;-75
2022/12/10 10:47:33;;;;;;;39.90;13.93;;;;;;;;;;5015783;28;20109;-75
2022/12/10 10:49:59;;;;;;;36.65;14.13;;;;;;;;;;5015684;28;20112;-75
2022/12/10 10:52:30;;;;;;;40.83;15.00;;;;;;;;;;5015721;28;20117;-75
2022/12/10 10:54:56;;;;;;;43.63;15.57;;;;;;;;;;5015334;28;20057;-75
2022/12/10 10:57:23;;;;;;;41.80;14.85;;;;;;;;;;5015961;28;20050;-75
2022/12/10 10:59:49;;;;;;;38.10;14.05;;;;;;;;;;5015712;28;20067;-75
2022/12/10 11:02:33;;;;;;;47.60;17.30;;;;;;;;;;5015795;28;20054;-75
2022/12/10 11:05:04;;;;;;;37.20;13.80;;;;;;;;;;5015248;28;20058;-75
2022/12/10 11:07:33;;;;;;;36.25;13.93;;;;;;;;;;5015477;28;20060;-75
2022/12/10 11:09:59;;;;;;;41.15;14.55;;;;;;;;;;5007185;28;20081;-75
2022/12/10 11:12:34;;;;;;;41.78;15.43;;;;;;;;;;4995797;28;20041;-75
2022/12/10 11:15:00;;;;;;;40.38;14.27;;;;;;;;;;4987726;28;20026;-75
2022/12/10 11:17:27;;;;;;;39.17;14.65;;;;;;;;;;4976204;28;20038;-75
2022/12/10 11:20:12;;;;;;;38.70;14.65;;;;;;;;;;4976046;28;20026;-76
2022/12/10 11:22:48;;;;;;;44.08;14.70;;;;;;;;;;4975972;28;20042;-76
2022/12/10 11:25:14;;;;;;;41.90;15.32;;;;;;;;;;4975959;28;20058;-76
2022/12/10 11:27:43;;;;;;;40.60;14.50;;;;;;;;;;4976420;28;20058;-75
2022/12/10 11:30:22;;;;;;;36.40;14.20;;;;;;;;;;4984403;28;20023;-76
2022/12/10 11:32:51;;;;;;;37.33;14.75;;;;;;;;;;4976580;28;20385;-76
2022/12/10 11:35:21;;;;;;;36.22;14.27;;;;;;;;;;4976068;28;20113;-76
2022/12/10 11:37:56;;;;;;;35.25;14.52;;;;;;;;;;4976053;28;20042;-76
2022/12/10 11:40:31;;;;;;;37.90;14.07;;;;;;;;;;4978724;28;20027;-76
2022/12/10 11:43:06;;;;;;;34.13;15.07;;;;;;;;;;4995084;28;20026;-76
2022/12/10 11:45:51;;;;;;;39.28;15.15;;;;;;;;;;4995230;28;20105;-75
2022/12/10 11:48:36;;;;;;;32.88;13.27;;;;;;;;;;4978196;28;20370;-75
2022/12/10 11:51:06;;;;;;;34.35;13.23;;;;;;;;;;4975114;28;20039;-76
2022/12/10 11:53:41;;;;;;;39.42;15.55;;;;;;;;;;4975720;28;20023;-75
2022/12/10 11:56:26;;;;;;;36.95;14.27;;;;;;;;;;4975235;28;20051;-76
2022/12/10 11:59:02;;;;;;;33.05;14.52;;;;;;;;;;4975487;28;20027;-76
2022/12/10 12:01:40;;;;;;;34.13;13.88;;;;;;;;;;4975353;28;20073;-76
2022/12/10 12:04:06;;;;;;;38.10;14.68;;;;;;;;;;4975373;28;20082;-76
2022/12/10 12:06:46;;;;;;;37.75;14.32;;;;;;;;;;4975244;28;20026;-76
2022/12/10 12:09:12;;;;;;;35.80;13.20;;;;;;;;;;4975164;28;20105;-76
2022/12/10 12:11:38;;;;;;;32.53;13.88;;;;;;;;;;4974458;28;20374;-76
2022/12/10 12:14:08;;;;;;;35.30;13.82;;;;;;;;;;4975012;28;20023;-76
2022/12/10 12:16:39;;;;;;;35.78;14.32;;;;;;;;;;4974452;28;20101;-76
2022/12/10 12:19:10;;;;;;;36.28;13.88;;;;;;;;;;4975017;28;20037;-76
2022/12/10 12:21:36;;;;;;;39.58;15.48;;;;;;;;;;4975164;28;20049;-76
2022/12/10 12:24:07;;;;;;;34.67;14.68;;;;;;;;;;4971596;28;20033;-75
2022/12/10 12:26:33;;;;;;;;;;;;;;;;;;4997326;28;20397;-76
2022/12/10 12:29:14;;;;;;;30.63;14.45;;;;;;;;;;5014264;28;20382;-76
2022/12/10 12:31:42;;;;;;;34.47;14.15;;;;;;;;;;5013706;28;20469;-76
2022/12/10 12:34:18;;;;;;;34.38;13.98;;;;;;;;;;5013936;28;20018;-76
2022/12/10 12:36:45;;;;;;;34.53;15.15;;;;;;;;;;5014020;28;20081;-76
2022/12/10 12:39:11;;;;;;;39.38;16.10;;;;;;;;;;5013883;28;20022;-76
2022/12/10 12:41:42;;;;;;;36.45;15.20;;;;;;;;;;5014126;28;20465;-76
2022/12/10 12:44:07;;;;;;;;;;;;;;;;;;5014526;28;20029;-76
2022/12/10 12:46:37;;;;;;;32.53;14.15;;;;;;;;;;5013866;28;19905;-76
2022/12/10 12:49:14;;;;;;;37.60;15.18;;;;;;;;;;5013885;28;20026;-76
2022/12/10 12:51:45;;;;;;;35.47;14.00;;;;;;;;;;5013286;28;20623;-76
2022/12/10 12:54:12;;;;;;;33.85;13.50;;;;;;;;;;5013669;28;20046;-76
2022/12/10 12:56:56;;;;;;;32.15;15.13;;;;;;;;;;5013780;28;20058;-76
2022/12/10 12:59:36;;;;;;;35.72;14.15;;;;;;;;;;4996220;28;20030;-75
2022/12/10 13:02:20;;;;;;;37.72;15.45;;;;;;;;;;5014113;28;20072;-76
2022/12/10 13:04:46;;;;;;;33.45;14.43;;;;;;;;;;5013824;28;20057;-76
2022/12/10 13:07:15;;;;;;;34.97;14.73;;;;;;;;;;5013571;28;20029;-76
2022/12/10 13:09:51;;;;;;;37.63;15.10;;;;;;;;;;5013697;28;20030;-76
2022/12/10 13:12:28;;;;;;;33.40;14.88;;;;;;;;;;5013524;28;20045;-76
2022/12/10 13:14:54;;;;;;;35.45;15.32;;;;;;;;;;5013623;28;20025;-76
2022/12/10 13:17:27;;;;;;;31.58;14.02;;;;;;;;;;5013439;28;20105;-76
2022/12/10 13:19:54;;;;;;;32.03;14.07;;;;;;;;;;5014060;28;20085;-75
2022/12/10 13:22:35;;;;;;;36.33;13.80;;;;;;;;;;5013215;28;20109;-76
2022/12/10 13:25:06;;;;;;;33.10;14.15;;;;;;;;;;5013272;28;20461;-76
2022/12/10 13:27:34;;;;;;;36.50;14.55;;;;;;;;;;5015258;28;20048;-76
2022/12/10 13:30:01;;;;;;;29.40;12.85;;;;;;;;;;5017172;28;20550;-76
2022/12/10 13:32:33;;;;;;;30.95;12.18;;;;;;;;;;5017001;28;20061;-76
2022/12/10 13:35:08;;;;;;;34.33;13.85;;;;;;;;;;5017356;28;20022;-76
2022/12/10 13:37:38;;;;;;;31.90;13.32;;;;;;;;;;5016739;28;20604;-76
2022/12/10 13:40:09;;;;;;;35.47;13.43;;;;;;;;;;5017027;28;20048;-76
2022/12/10 13:45:21;;;;;;;32.13;13.77;;;;;;;;;;5017286;28;20033;-76
2022/12/10 13:47:48;;;;;;;30.35;12.57;;;;;;;;;;5016618;28;20026;-76
2022/12/10 13:50:19;;;;;;;32.88;12.80;;;;;;;;;;4999014;28;20022;-76
2022/12/10 13:52:57;;;;;;;39.85;14.00;;;;;;;;;;5016462;28;20091;-76
2022/12/10 13:55:31;;;;;;;31.92;13.38;;;;;;;;;;5016541;28;20058;-76
2022/12/10 13:58:03;;;;;;;34.15;14.05;;;;;;;;;;5016700;28;20104;-76
2022/12/10 14:00:42;;;;;;;26.83;12.18;;;;;;;;;;5016707;28;20100;-76
2022/12/10 14:03:41;;;;;;;34.58;14.43;;;;;;;;;;5016256;28;20026;-76
2022/12/10 14:06:13;;;;;;;39.08;14.20;;;;;;;;;;4973260;28;20034;-76
2022/12/10 14:08:40;;;;;;;200.38;23.58;;;;;;;;;;5016879;28;20105;-76
2022/12/10 14:11:12;;;;;;;34.92;14.88;;;;;;;;;;5016506;28;20038;-76
2022/12/10 14:13:42;;;;;;;33.42;13.05;;;;;;;;;;5016413;28;20029;-75
2022/12/10 14:16:11;;;;;;;29.98;13.23;;;;;;;;;;5016434;28;20026;-76
2022/12/10 14:18:38;;;;;;;33.40;13.27;;;;;;;;;;5016367;28;20025;-76
2022/12/10 14:21:06;;;;;;;28.42;12.23;;;;;;;;;;4988285;28;20045;-76
2022/12/10 14:23:33;;;;;;;32.65;12.75;;;;;;;;;;4981428;28;20034;-76
2022/12/10 14:26:03;;;;;;;30.38;11.88;;;;;;;;;;4984380;28;20022;-76
2022/12/10 14:28:33;;;;;;;36.30;12.38;;;;;;;;;;4985925;28;20462;-76
2022/12/10 14:30:59;;;;;;;29.00;11.30;;;;;;;;;;4988676;28;20038;-76
2022/12/10 14:33:25;;;;;;;29.92;11.93;;;;;;;;;;4976980;28;20026;-76
2022/12/10 14:35:53;;;;;;;31.35;13.43;;;;;;;;;;4993533;28;20409;-76